Time;durP1;ratioP1;P1;durP2;ratioP2;P2;SDS_P1;SDS_P2;PMS_P1;PMS_P2;Temp;Humidity;BMP_temperature;BMP_pressure;BME280_temperature;BME280_humidity;BME280_pressure;Samples;Min_cycle;Max_cycle;Signal;HPM_P1;HPM_P2
2021/07/07 00:01:01;;;;;;;3.33;0.93;;;18.70;99.90;;;;;;5071006;28;20559;-78
2021/07/07 00:03:27;;;;;;;1.73;1.00;;;18.60;99.90;;;;;;5072308;28;20522;-78
2021/07/07 00:05:53;;;;;;;2.87;1.27;;;18.60;99.90;;;;;;5072102;28;20551;-79
2021/07/07 00:08:19;;;;;;;3.00;1.00;;;18.60;99.90;;;;;;5070585;28;21027;-79
2021/07/07 00:10:45;;;;;;;2.67;0.93;;;18.60;99.90;;;;;;5072340;28;20591;-78
2021/07/07 00:13:12;;;;;;;2.87;1.10;;;18.60;99.90;;;;;;5078271;28;20635;-78
2021/07/07 00:15:38;;;;;;;3.40;1.10;;;18.60;99.90;;;;;;5070466;28;20591;-79
2021/07/07 00:18:08;;;;;;;2.33;1.20;;;18.50;99.90;;;;;;5080182;28;20669;-79
2021/07/07 00:20:41;;;;;;;4.90;1.20;;;18.60;99.90;;;;;;5090942;28;20606;-79
2021/07/07 00:23:07;;;;;;;5.80;1.13;;;18.60;99.90;;;;;;5092175;28;20573;-79
2021/07/07 00:25:33;;;;;;;2.13;1.07;;;18.60;99.90;;;;;;5090779;28;20969;-79
2021/07/07 00:27:59;;;;;;;4.57;1.57;;;18.50;99.90;;;;;;5092018;28;20609;-79
2021/07/07 00:30:25;;;;;;;4.57;1.33;;;18.50;99.90;;;;;;5090578;28;20647;-79
2021/07/07 00:32:51;;;;;;;3.67;1.30;;;18.50;99.90;;;;;;5090950;28;20179;-78
2021/07/07 00:35:17;;;;;;;3.53;1.80;;;18.50;99.90;;;;;;5074101;28;20562;-78
2021/07/07 00:37:43;;;;;;;6.87;1.97;;;18.50;99.90;;;;;;5090957;28;20172;-78
2021/07/07 00:40:09;;;;;;;5.20;1.33;;;18.50;99.90;;;;;;5091742;28;20174;-79
2021/07/07 00:42:34;;;;;;;3.17;1.10;;;18.50;99.90;;;;;;5092380;28;20523;-78
2021/07/07 00:45:00;;;;;;;4.10;0.97;;;18.50;99.90;;;;;;5091187;28;20626;-78
2021/07/07 00:47:26;;;;;;;4.83;1.30;;;18.40;99.90;;;;;;5092134;28;20555;-78
2021/07/07 00:49:52;;;;;;;2.13;1.17;;;18.40;99.90;;;;;;5098324;28;20573;-79
2021/07/07 00:52:19;;;;;;;5.07;1.40;;;18.40;99.90;;;;;;5094440;28;20259;-78
2021/07/07 00:54:45;;;;;;;4.57;1.00;;;18.40;99.90;;;;;;5095005;28;20237;-78
2021/07/07 00:57:13;;;;;;;3.83;1.20;;;18.40;99.90;;;;;;5090841;28;20566;-78
2021/07/07 00:59:41;;;;;;;4.70;1.10;;;18.40;99.90;;;;;;5090276;28;20630;-78
2021/07/07 01:02:09;;;;;;;3.20;0.80;;;18.40;99.90;;;;;;5090405;28;20616;-77
2021/07/07 01:04:35;;;;;;;5.00;0.93;;;18.40;99.90;;;;;;5099356;28;20570;-77
2021/07/07 01:07:04;;;;;;;3.93;0.80;;;18.50;99.90;;;;;;5091764;28;20577;-78
2021/07/07 01:09:29;;;;;;;2.80;0.90;;;18.50;99.90;;;;;;5091884;28;20176;-78
2021/07/07 01:11:55;;;;;;;2.47;1.07;;;18.50;99.90;;;;;;5096068;28;20609;-77
2021/07/07 01:14:21;;;;;;;4.73;1.00;;;18.40;99.90;;;;;;5095761;28;20622;-78
2021/07/07 01:16:49;;;;;;;3.80;1.10;;;18.40;99.90;;;;;;5095676;28;20160;-77
2021/07/07 01:19:15;;;;;;;3.57;1.40;;;18.40;99.90;;;;;;5095472;28;20179;-77
2021/07/07 01:21:44;;;;;;;2.43;1.30;;;18.40;99.90;;;;;;5095777;28;20589;-77
2021/07/07 01:24:10;;;;;;;2.77;1.00;;;18.30;99.90;;;;;;5095716;28;20168;-78
2021/07/07 01:26:36;;;;;;;2.60;1.10;;;18.30;99.90;;;;;;5099799;28;20568;-77
2021/07/07 01:29:02;;;;;;;2.03;1.10;;;18.30;99.90;;;;;;5095109;28;20619;-77
2021/07/07 01:31:27;;;;;;;6.20;1.67;;;18.30;99.90;;;;;;5094216;28;20179;-77
2021/07/07 01:33:53;;;;;;;3.47;1.30;;;18.30;99.90;;;;;;5093848;28;20598;-78
2021/07/07 01:36:19;;;;;;;5.50;1.30;;;18.30;99.90;;;;;;5095300;28;20191;-77
2021/07/07 01:38:45;;;;;;;3.83;1.40;;;18.30;99.90;;;;;;5095004;28;20168;-78
2021/07/07 01:41:12;;;;;;;3.30;1.67;;;18.20;99.90;;;;;;5093993;28;20200;-78
2021/07/07 01:43:38;;;;;;;4.43;1.57;;;18.20;99.90;;;;;;5095095;28;20199;-78
2021/07/07 01:46:04;;;;;;;5.90;1.73;;;18.20;99.90;;;;;;5094976;28;20601;-79
2021/07/07 01:48:30;;;;;;;2.33;0.80;;;18.20;99.90;;;;;;5094747;28;20191;-79
2021/07/07 01:50:57;;;;;;;2.30;1.00;;;18.20;99.90;;;;;;5093419;28;20199;-79
2021/07/07 01:53:23;;;;;;;3.27;0.90;;;18.10;99.90;;;;;;5094873;28;20171;-78
2021/07/07 01:55:49;;;;;;;3.97;1.23;;;18.10;99.90;;;;;;5093701;28;20553;-78
2021/07/07 01:58:15;;;;;;;5.10;1.53;;;18.10;99.90;;;;;;5094613;28;20228;-78
2021/07/07 02:00:40;;;;;;;4.33;1.20;;;18.10;99.90;;;;;;5094947;28;20192;-78
2021/07/07 02:03:06;;;;;;;3.20;1.07;;;18.10;99.90;;;;;;5099540;28;20164;-78
2021/07/07 02:05:35;;;;;;;5.40;1.73;;;18.00;99.90;;;;;;5094695;28;20569;-78
2021/07/07 02:08:04;;;;;;;2.13;0.93;;;18.00;99.90;;;;;;5093261;28;20572;-78
2021/07/07 02:10:30;;;;;;;6.50;1.20;;;18.00;99.90;;;;;;5093056;28;20613;-78
2021/07/07 02:12:56;;;;;;;5.43;1.40;;;17.90;99.90;;;;;;5094610;28;20594;-79
2021/07/07 02:15:32;;;;;;;3.73;1.20;;;17.90;99.90;;;;;;5093457;28;20167;-78
2021/07/07 02:17:59;;;;;;;2.90;1.17;;;17.90;99.90;;;;;;5094635;28;20167;-78
2021/07/07 02:20:26;;;;;;;2.33;1.00;;;17.90;99.90;;;;;;5092310;28;20601;-78
2021/07/07 02:22:53;;;;;;;3.50;1.30;;;17.90;99.90;;;;;;5076294;28;20581;-78
2021/07/07 02:25:22;;;;;;;4.70;1.00;;;17.90;99.90;;;;;;5094230;28;20570;-78
2021/07/07 02:27:51;;;;;;;9.07;1.53;;;17.90;99.90;;;;;;5094203;28;20292;-77
2021/07/07 02:30:19;;;;;;;2.73;1.10;;;17.90;99.90;;;;;;5093882;28;20636;-79
2021/07/07 02:32:46;;;;;;;3.23;1.27;;;17.90;99.90;;;;;;5092997;28;20561;-79
2021/07/07 02:35:15;;;;;;;2.40;0.90;;;17.90;99.90;;;;;;5092974;28;20991;-79
2021/07/07 02:37:42;;;;;;;6.03;1.40;;;17.90;99.90;;;;;;5093002;28;21179;-79
2021/07/07 02:40:09;;;;;;;3.13;1.53;;;17.90;99.90;;;;;;5097652;28;21177;-79
2021/07/07 02:42:35;;;;;;;3.57;1.00;;;17.90;99.90;;;;;;5092916;28;20589;-79
2021/07/07 02:45:02;;;;;;;3.53;1.17;;;17.90;99.90;;;;;;5092590;28;20930;-79
2021/07/07 02:47:28;;;;;;;2.53;1.00;;;17.80;99.90;;;;;;5093796;28;20205;-79
2021/07/07 02:49:53;;;;;;;4.13;1.13;;;17.80;99.90;;;;;;5092428;28;20569;-79
2021/07/07 02:52:19;;;;;;;9.03;1.43;;;17.80;99.90;;;;;;5094332;28;20183;-79
2021/07/07 02:54:46;;;;;;;9.13;1.50;;;17.80;99.90;;;;;;5093996;28;20170;-78
2021/07/07 02:57:12;;;;;;;4.77;1.37;;;17.80;99.90;;;;;;5095444;28;20202;-78
2021/07/07 02:59:40;;;;;;;2.47;1.20;;;17.80;99.90;;;;;;5092294;28;20553;-79
2021/07/07 03:02:06;;;;;;;3.40;1.23;;;17.80;99.90;;;;;;5075635;28;20594;-78
2021/07/07 03:04:31;;;;;;;3.50;1.07;;;17.70;99.90;;;;;;5093615;28;20164;-79
2021/07/07 03:06:59;;;;;;;2.30;1.23;;;17.70;99.90;;;;;;5093475;28;20171;-78
2021/07/07 03:09:25;;;;;;;3.10;1.00;;;17.70;99.90;;;;;;5092119;28;20638;-78
2021/07/07 03:11:51;;;;;;;3.90;1.23;;;17.70;99.90;;;;;;5092429;28;20176;-78
2021/07/07 03:14:16;;;;;;;4.30;1.00;;;17.70;99.90;;;;;;5093774;28;20739;-78
2021/07/07 03:16:42;;;;;;;5.80;1.23;;;17.70;99.90;;;;;;5098029;28;20250;-78
2021/07/07 03:19:08;;;;;;;4.30;1.60;;;17.70;99.90;;;;;;5093275;28;20168;-78
2021/07/07 03:21:33;;;;;;;4.53;1.20;;;17.70;99.90;;;;;;5093237;28;20643;-78
2021/07/07 03:23:59;;;;;;;3.37;0.87;;;17.70;99.90;;;;;;5093364;28;20628;-77
2021/07/07 03:26:25;;;;;;;2.13;1.00;;;17.70;99.90;;;;;;5091916;28;20171;-77
2021/07/07 03:28:51;;;;;;;2.90;1.10;;;17.70;99.90;;;;;;5092754;28;20199;-77
2021/07/07 03:31:16;;;;;;;3.50;1.50;;;17.70;99.90;;;;;;5092320;28;20521;-77
2021/07/07 03:33:42;;;;;;;4.80;1.30;;;17.70;99.90;;;;;;5091495;28;20164;-77
2021/07/07 03:36:08;;;;;;;4.17;1.13;;;17.70;99.90;;;;;;5092504;28;20172;-77
2021/07/07 03:38:34;;;;;;;2.23;0.90;;;17.70;99.90;;;;;;5092747;28;20246;-77
2021/07/07 03:41:00;;;;;;;3.50;1.20;;;17.70;99.90;;;;;;5092786;28;20304;-77
2021/07/07 03:43:26;;;;;;;3.73;1.00;;;17.70;99.90;;;;;;5091584;28;20700;-77
2021/07/07 03:45:52;;;;;;;4.40;1.20;;;17.70;99.90;;;;;;5092494;28;20569;-78
2021/07/07 03:48:17;;;;;;;5.13;1.77;;;17.70;99.90;;;;;;5079221;28;20238;-77
2021/07/07 03:50:43;;;;;;;2.23;1.00;;;17.70;99.90;;;;;;5072217;28;20246;-77
2021/07/07 03:53:11;;;;;;;3.73;1.40;;;17.70;99.90;;;;;;5075940;28;20183;-76
2021/07/07 03:55:37;;;;;;;4.87;1.00;;;17.70;99.90;;;;;;5070748;28;20172;-76
2021/07/07 03:58:03;;;;;;;3.13;1.17;;;17.70;99.90;;;;;;5072383;28;20571;-76
2021/07/07 04:00:30;;;;;;;6.50;1.40;;;17.70;99.90;;;;;;5071978;28;20188;-76
2021/07/07 04:02:57;;;;;;;5.33;1.60;;;17.70;99.90;;;;;;5072240;28;20572;-77
2021/07/07 04:05:26;;;;;;;2.23;1.30;;;17.70;99.90;;;;;;5071038;28;20603;-77
2021/07/07 04:07:52;;;;;;;5.27;1.30;;;17.70;99.90;;;;;;5072149;28;20617;-76
2021/07/07 04:10:18;;;;;;;2.73;1.10;;;17.70;99.90;;;;;;5072201;28;21161;-76
2021/07/07 04:12:45;;;;;;;3.60;1.27;;;17.70;99.90;;;;;;5073063;28;20567;-77
2021/07/07 04:15:12;;;;;;;2.00;0.80;;;17.70;99.90;;;;;;5070874;28;20570;-77
2021/07/07 04:17:38;;;;;;;6.50;1.13;;;17.70;99.90;;;;;;5070728;28;20565;-76
2021/07/07 04:20:10;;;;;;;4.13;1.20;;;17.70;99.90;;;;;;5071446;28;20563;-76
2021/07/07 04:22:36;;;;;;;8.20;1.43;;;17.80;99.90;;;;;;5072102;28;20164;-76
2021/07/07 04:25:03;;;;;;;3.40;1.00;;;17.90;99.90;;;;;;5070781;28;20620;-76
2021/07/07 04:27:29;;;;;;;2.33;1.13;;;17.90;99.90;;;;;;5070459;28;20633;-76
2021/07/07 04:29:54;;;;;;;2.10;1.00;;;18.10;99.90;;;;;;5076194;28;21133;-77
2021/07/07 04:32:22;;;;;;;4.80;1.20;;;18.10;99.90;;;;;;5070723;28;20171;-77
2021/07/07 04:34:48;;;;;;;3.63;1.23;;;18.20;99.90;;;;;;5070526;28;20196;-77
2021/07/07 04:37:14;;;;;;;4.03;1.00;;;18.20;99.90;;;;;;5053713;28;20665;-77
2021/07/07 04:39:40;;;;;;;4.60;1.00;;;18.30;99.90;;;;;;5079089;28;20172;-77
2021/07/07 04:42:06;;;;;;;6.67;2.50;;;18.30;99.90;;;;;;5053989;28;20613;-77
2021/07/07 04:44:32;;;;;;;3.47;1.20;;;18.40;99.90;;;;;;5071910;28;20571;-77
2021/07/07 04:46:59;;;;;;;1.73;0.90;;;18.40;99.90;;;;;;5072208;28;20575;-78
2021/07/07 04:49:25;;;;;;;1.33;0.80;;;18.50;99.90;;;;;;5070786;28;20183;-74
2021/07/07 04:51:51;;;;;;;3.50;1.30;;;18.50;99.90;;;;;;5072145;28;20617;-76
2021/07/07 04:54:17;;;;;;;3.80;1.10;;;18.60;99.90;;;;;;5054189;28;20594;-76
2021/07/07 04:56:44;;;;;;;2.70;1.20;;;18.70;99.90;;;;;;5073629;28;20174;-75
2021/07/07 04:59:10;;;;;;;1.70;0.90;;;18.80;99.90;;;;;;5071278;28;20183;-77
2021/07/07 05:01:38;;;;;;;4.33;1.83;;;18.80;99.90;;;;;;5070294;28;20602;-76
2021/07/07 05:04:05;;;;;;;4.23;1.10;;;18.90;99.90;;;;;;5071896;28;20578;-77
2021/07/07 05:06:32;;;;;;;10.87;1.40;;;19.00;99.90;;;;;;5074480;28;20574;-75
2021/07/07 05:08:57;;;;;;;2.10;1.00;;;19.10;99.90;;;;;;5072172;28;20725;-77
2021/07/07 05:11:23;;;;;;;5.30;1.23;;;19.10;99.90;;;;;;5071343;28;20635;-76
2021/07/07 05:13:49;;;;;;;2.50;1.07;;;19.20;99.90;;;;;;5070056;28;20168;-76
2021/07/07 05:16:15;;;;;;;5.27;1.10;;;19.30;99.90;;;;;;5071230;28;20621;-76
2021/07/07 05:18:41;;;;;;;2.70;0.93;;;19.30;99.90;;;;;;5070888;28;20221;-77
2021/07/07 05:21:08;;;;;;;3.60;1.07;;;19.40;99.90;;;;;;5071100;28;20999;-77
2021/07/07 05:23:34;;;;;;;3.10;1.30;;;19.50;99.90;;;;;;5071060;28;20206;-76
2021/07/07 05:26:02;;;;;;;2.23;2.03;;;19.60;99.90;;;;;;5069890;28;20571;-77
2021/07/07 05:28:28;;;;;;;2.97;1.00;;;19.60;99.90;;;;;;5071099;28;20977;-77
2021/07/07 05:30:54;;;;;;;4.03;1.30;;;19.70;99.90;;;;;;5071014;28;20586;-77
2021/07/07 05:33:20;;;;;;;3.77;1.00;;;19.70;99.90;;;;;;5071427;28;20708;-79
2021/07/07 05:35:46;;;;;;;6.30;2.90;;;19.70;99.90;;;;;;5071634;28;20602;-79
2021/07/07 05:38:11;;;;;;;1.83;0.90;;;19.70;99.90;;;;;;5071846;28;20168;-78
2021/07/07 05:40:37;;;;;;;3.73;1.40;;;19.80;99.90;;;;;;5053903;28;20203;-78
2021/07/07 05:43:03;;;;;;;4.47;1.03;;;19.80;99.90;;;;;;5073912;28;20179;-78
2021/07/07 05:45:29;;;;;;;3.80;1.13;;;19.80;99.90;;;;;;5070101;28;20172;-77
2021/07/07 05:47:56;;;;;;;6.03;1.10;;;19.80;99.90;;;;;;5069605;28;20208;-77
2021/07/07 05:50:24;;;;;;;5.10;1.10;;;19.90;99.90;;;;;;5070436;28;20599;-77
2021/07/07 05:52:50;;;;;;;4.33;1.20;;;20.00;99.90;;;;;;5069689;28;20620;-77
2021/07/07 05:55:16;;;;;;;4.20;1.00;;;20.00;99.90;;;;;;5069315;28;21059;-77
2021/07/07 05:57:42;;;;;;;4.83;1.20;;;20.00;99.90;;;;;;5074051;28;20674;-76
2021/07/07 06:00:11;;;;;;;5.93;1.10;;;20.10;99.90;;;;;;5074234;28;20642;-75
2021/07/07 06:02:38;;;;;;;5.70;1.20;;;20.10;99.90;;;;;;5074104;28;20572;-74
2021/07/07 06:05:06;;;;;;;5.83;0.90;;;20.20;99.90;;;;;;5072910;28;20578;-75
2021/07/07 06:07:32;;;;;;;2.80;1.40;;;20.50;99.90;;;;;;5055858;28;20654;-74
2021/07/07 06:09:58;;;;;;;2.93;0.80;;;21.00;99.90;;;;;;5073807;28;20948;-76
2021/07/07 06:12:24;;;;;;;2.33;1.07;;;21.30;99.90;;;;;;5073979;28;20164;-75
2021/07/07 06:14:49;;;;;;;2.93;1.10;;;21.60;99.90;;;;;;5074119;28;20169;-75
2021/07/07 06:17:16;;;;;;;2.40;1.00;;;22.00;99.90;;;;;;5073850;28;20164;-74
2021/07/07 06:19:42;;;;;;;1.50;0.80;;;22.70;99.90;;;;;;5074941;28;20255;-74
2021/07/07 06:22:07;;;;;;;1.97;0.80;;;23.30;99.90;;;;;;5074932;28;20661;-74
2021/07/07 06:24:33;;;;;;;5.33;1.27;;;23.60;99.90;;;;;;5073932;28;20191;-74
2021/07/07 06:26:59;;;;;;;4.40;0.90;;;23.60;99.90;;;;;;5073612;28;20525;-75
2021/07/07 06:29:24;;;;;;;3.50;0.90;;;23.70;99.90;;;;;;5073262;28;20434;-74
2021/07/07 06:31:50;;;;;;;2.33;0.90;;;23.90;99.90;;;;;;5072095;28;20196;-74
2021/07/07 06:34:16;;;;;;;5.23;0.90;;;23.90;99.90;;;;;;5081899;28;20176;-74
2021/07/07 06:36:42;;;;;;;4.50;1.03;;;24.00;99.90;;;;;;5093249;28;21059;-75
2021/07/07 06:39:08;;;;;;;8.40;2.07;;;24.20;99.90;;;;;;5093260;28;20187;-74
2021/07/07 06:41:34;;;;;;;3.87;1.00;;;24.20;99.90;;;;;;5094380;28;20278;-75
2021/07/07 06:43:59;;;;;;;2.73;0.90;;;24.30;99.90;;;;;;5095881;28;20277;-77
2021/07/07 06:46:25;;;;;;;5.07;0.90;;;24.30;99.90;;;;;;5073314;28;20562;-76
2021/07/07 06:48:52;;;;;;;3.70;1.50;;;24.30;99.90;;;;;;5072980;28;20218;-76
2021/07/07 06:51:18;;;;;;;4.33;1.23;;;24.40;99.90;;;;;;5073319;28;20642;-77
2021/07/07 06:53:44;;;;;;;3.73;0.90;;;24.80;99.90;;;;;;5073224;28;20575;-76
2021/07/07 06:56:10;;;;;;;2.67;0.93;;;25.10;99.90;;;;;;5073930;28;20566;-76
2021/07/07 06:58:35;;;;;;;2.50;0.77;;;25.40;99.90;;;;;;5079936;28;20168;-76
2021/07/07 07:01:01;;;;;;;3.63;1.10;;;25.90;99.90;;;;;;5084603;28;20803;-77
2021/07/07 07:03:27;;;;;;;5.97;1.10;;;26.40;99.90;;;;;;5078490;28;20511;-77
2021/07/07 07:05:52;;;;;;;2.50;0.90;;;26.70;99.90;;;;;;5072771;28;20604;-76
2021/07/07 07:08:18;;;;;;;3.33;0.90;;;27.00;99.90;;;;;;5091661;28;20689;-76
2021/07/07 07:10:45;;;;;;;2.10;0.80;;;27.40;99.90;;;;;;5094073;28;20562;-77
2021/07/07 07:13:12;;;;;;;3.27;1.33;;;27.60;99.90;;;;;;5092871;28;20569;-76
2021/07/07 07:15:38;;;;;;;2.73;0.90;;;27.60;99.90;;;;;;5083523;28;20586;-77
2021/07/07 07:18:04;;;;;;;2.07;0.80;;;27.40;99.90;;;;;;5072818;28;21102;-76
2021/07/07 07:20:30;;;;;;;2.30;0.80;;;27.10;99.90;;;;;;5073198;28;20192;-76
2021/07/07 07:22:57;;;;;;;3.67;1.00;;;26.90;99.90;;;;;;5073319;28;21128;-76
2021/07/07 07:25:24;;;;;;;3.77;1.13;;;26.80;99.90;;;;;;5071970;28;20179;-76
2021/07/07 07:27:49;;;;;;;3.47;1.10;;;26.50;99.90;;;;;;5071892;28;20686;-76
2021/07/07 07:30:15;;;;;;;4.47;1.50;;;26.30;99.90;;;;;;5053750;28;20594;-76
2021/07/07 07:32:42;;;;;;;3.07;0.93;;;26.10;99.90;;;;;;5054126;28;20219;-76
2021/07/07 07:35:08;;;;;;;2.70;0.80;;;26.20;99.90;;;;;;5073706;28;20583;-76
2021/07/07 07:37:39;;;;;;;5.67;1.10;;;26.50;99.90;;;;;;5072843;28;20575;-76
2021/07/07 07:40:10;;;;;;;1.67;0.70;;;26.80;99.90;;;;;;5071243;28;20590;-76
2021/07/07 07:42:41;;;;;;;2.47;1.30;;;27.30;99.90;;;;;;5073812;28;20571;-76
2021/07/07 07:45:08;;;;;;;3.27;1.07;;;27.80;99.90;;;;;;5073031;28;20574;-77
2021/07/07 07:47:34;;;;;;;2.80;1.53;;;28.50;99.90;;;;;;5072919;28;20629;-76
2021/07/07 07:50:00;;;;;;;2.53;1.00;;;29.00;99.90;;;;;;5070532;28;20940;-76
2021/07/07 07:52:26;;;;;;;2.33;0.80;;;29.40;99.90;;;;;;5071119;28;20165;-75
2021/07/07 07:54:52;;;;;;;3.67;1.03;;;29.90;99.90;;;;;;5070708;28;20572;-75
2021/07/07 07:57:18;;;;;;;2.40;0.83;;;30.40;99.90;;;;;;5070470;28;20186;-75
2021/07/07 07:59:43;;;;;;;5.30;1.00;;;31.20;99.30;;;;;;5071478;28;20178;-75
2021/07/07 08:02:09;;;;;;;2.40;0.90;;;31.80;98.20;;;;;;5071731;28;20196;-75
2021/07/07 08:04:35;;;;;;;4.00;0.80;;;32.50;97.60;;;;;;5071826;28;20233;-75
2021/07/07 08:07:00;;;;;;;2.90;1.00;;;33.20;96.80;;;;;;5082589;28;20179;-75
2021/07/07 08:09:26;;;;;;;2.93;0.70;;;33.60;94.10;;;;;;5091822;28;20199;-75
2021/07/07 08:11:52;;;;;;;2.03;0.80;;;34.10;93.50;;;;;;5093527;28;20601;-76
2021/07/07 08:14:18;;;;;;;1.30;0.70;;;34.70;92.30;;;;;;5099447;28;20203;-76
2021/07/07 08:16:44;;;;;;;2.70;0.63;;;35.20;91.70;;;;;;5091906;28;20506;-76
2021/07/07 08:19:09;;;;;;;2.77;1.00;;;35.60;90.40;;;;;;5090098;28;20174;-75
2021/07/07 08:21:35;;;;;;;1.97;0.70;;;36.30;89.20;;;;;;5091733;28;20187;-76
2021/07/07 08:24:03;;;;;;;2.43;0.90;;;37.00;86.10;;;;;;5090599;28;20183;-75
2021/07/07 08:26:29;;;;;;;2.50;0.83;;;37.30;78.90;;;;;;5091534;28;20654;-75
2021/07/07 08:28:58;;;;;;;2.60;0.83;;;37.30;75.30;;;;;;5091341;28;20636;-75
2021/07/07 08:31:25;;;;;;;3.70;0.73;;;37.40;72.20;;;;;;5091430;28;20589;-76
2021/07/07 08:33:54;;;;;;;1.77;0.80;;;37.20;69.80;;;;;;5091212;28;20605;-76
2021/07/07 08:36:23;;;;;;;2.33;0.80;;;37.40;69.60;;;;;;5073777;28;20619;-76
2021/07/07 08:38:49;;;;;;;2.80;1.17;;;37.60;68.20;;;;;;5091527;28;20570;-76
2021/07/07 08:41:15;;;;;;;2.13;0.80;;;37.80;68.60;;;;;;5090041;28;20613;-76
2021/07/07 08:43:43;;;;;;;2.80;0.90;;;38.20;64.80;;;;;;5073699;28;20577;-76
2021/07/07 08:46:09;;;;;;;3.97;1.07;;;38.10;63.30;;;;;;5091695;28;20658;-76
2021/07/07 08:48:35;;;;;;;4.10;1.00;;;38.00;63.40;;;;;;5073663;28;21090;-76
2021/07/07 08:51:02;;;;;;;1.67;0.70;;;38.20;63.10;;;;;;5092280;28;20253;-75
2021/07/07 08:53:28;;;;;;;4.90;0.90;;;37.90;58.10;;;;;;5091920;28;20651;-77
2021/07/07 08:55:54;;;;;;;3.10;0.90;;;37.60;59.10;;;;;;5091377;28;20573;-76
2021/07/07 08:58:20;;;;;;;3.67;1.40;;;37.80;59.70;;;;;;5090855;28;20587;-76
2021/07/07 09:00:49;;;;;;;3.30;0.97;;;38.20;59.70;;;;;;5091055;28;20203;-75
2021/07/07 09:03:15;;;;;;;2.73;0.90;;;38.70;58.80;;;;;;5089655;28;20612;-75
2021/07/07 09:05:54;;;;;;;1.80;0.90;;;38.90;58.10;;;;;;5090791;28;20564;-76
2021/07/07 09:08:27;;;;;;;1.80;0.60;;;39.30;57.80;;;;;;5049412;28;20959;-76
2021/07/07 09:10:54;;;;;;;1.70;0.70;;;39.30;55.10;;;;;;5050898;28;20599;-76
2021/07/07 09:13:22;;;;;;;2.80;0.73;;;39.40;55.80;;;;;;5050194;28;20563;-76
2021/07/07 09:15:48;;;;;;;1.50;0.70;;;39.60;55.60;;;;;;5049272;28;20575;-76
2021/07/07 09:18:32;;;;;;;2.17;0.90;;;40.10;55.40;;;;;;5050829;28;20978;-77
2021/07/07 09:21:01;;;;;;;2.07;0.70;;;40.50;53.80;;;;;;5049594;28;20690;-76
2021/07/07 09:23:29;;;;;;;1.80;0.70;;;40.60;51.00;;;;;;5051098;28;20567;-77
2021/07/07 09:26:03;;;;;;;2.17;0.60;;;40.40;51.20;;;;;;5050905;28;20923;-76
2021/07/07 09:28:38;;;;;;;2.30;0.73;;;40.40;50.00;;;;;;5049010;28;21026;-76
2021/07/07 09:31:25;;;;;;;2.37;1.17;;;40.10;49.50;;;;;;5053015;28;20598;-77
2021/07/07 09:33:51;;;;;;;2.73;1.00;;;39.90;48.60;;;;;;5053272;28;20582;-76
2021/07/07 09:36:19;;;;;;;2.70;0.90;;;39.30;47.80;;;;;;5054648;28;20559;-77
2021/07/07 09:38:45;;;;;;;1.87;0.70;;;38.70;47.70;;;;;;5054382;28;20252;-78
2021/07/07 09:41:12;;;;;;;2.43;0.50;;;38.10;47.10;;;;;;5054608;28;20653;-76
2021/07/07 09:43:52;;;;;;;2.60;0.80;;;37.40;47.20;;;;;;5054199;28;20603;-76
2021/07/07 09:46:19;;;;;;;3.93;0.70;;;36.80;47.20;;;;;;5053178;28;20575;-77
2021/07/07 09:48:47;;;;;;;2.43;1.00;;;36.00;47.30;;;;;;5052669;28;20722;-76
2021/07/07 09:51:13;;;;;;;2.07;0.70;;;35.50;47.50;;;;;;5053101;28;21031;-76
2021/07/07 09:53:39;;;;;;;3.00;0.90;;;35.10;47.90;;;;;;5036217;28;21139;-76
2021/07/07 09:56:05;;;;;;;2.53;0.70;;;35.00;48.90;;;;;;5053029;28;20556;-77
2021/07/07 09:58:31;;;;;;;2.43;0.73;;;35.30;49.60;;;;;;5053925;28;20168;-76
2021/07/07 10:00:59;;;;;;;3.47;0.70;;;35.80;50.20;;;;;;5045583;28;20227;-76
2021/07/07 10:03:24;;;;;;;2.10;0.77;;;36.50;50.30;;;;;;5074167;28;20562;-76
2021/07/07 10:05:51;;;;;;;4.97;0.77;;;37.10;50.00;;;;;;5075035;28;20566;-76
2021/07/07 10:08:19;;;;;;;3.73;0.90;;;37.70;49.80;;;;;;5093803;28;20305;-76
2021/07/07 10:10:45;;;;;;;1.80;0.60;;;38.40;49.00;;;;;;5092748;28;20585;-76
2021/07/07 10:13:12;;;;;;;2.13;0.90;;;38.90;48.90;;;;;;5092182;28;20647;-76
2021/07/07 10:15:38;;;;;;;2.90;0.70;;;39.10;48.10;;;;;;5093190;28;20577;-76
2021/07/07 10:18:06;;;;;;;1.70;0.73;;;39.10;46.80;;;;;;5093123;28;21124;-76
2021/07/07 10:20:33;;;;;;;1.90;0.80;;;38.80;45.40;;;;;;5091650;28;20198;-76
2021/07/07 10:23:01;;;;;;;8.30;1.00;;;38.30;44.90;;;;;;5091913;28;20573;-76
2021/07/07 10:25:29;;;;;;;2.13;0.80;;;37.50;44.40;;;;;;5094058;28;20600;-76
2021/07/07 10:28:01;;;;;;;1.90;0.70;;;36.80;45.00;;;;;;5093453;28;20736;-77
2021/07/07 10:30:57;;;;;;;2.00;0.70;;;36.50;45.50;;;;;;5093470;28;20596;-75
2021/07/07 10:33:28;;;;;;;2.87;0.70;;;36.20;45.60;;;;;;5092618;28;20596;-76
2021/07/07 10:36:12;;;;;;;2.30;0.60;;;35.70;45.00;;;;;;5092433;28;20573;-76
2021/07/07 10:38:38;;;;;;;3.13;0.83;;;35.30;45.50;;;;;;5075187;28;20572;-76
2021/07/07 10:41:04;;;;;;;1.70;0.63;;;35.10;45.70;;;;;;5092008;28;20682;-76
2021/07/07 10:43:46;;;;;;;1.40;0.50;;;35.30;46.20;;;;;;5093566;28;20183;-75
2021/07/07 10:46:12;;;;;;;2.60;1.20;;;35.70;46.50;;;;;;5093555;28;20573;-76
2021/07/07 10:48:38;;;;;;;2.53;0.70;;;36.20;46.40;;;;;;5092858;28;20635;-76
2021/07/07 10:51:23;;;;;;;1.83;0.60;;;36.70;45.90;;;;;;5075340;28;21156;-76
2021/07/07 10:53:49;;;;;;;2.10;0.60;;;37.20;46.10;;;;;;5093271;28;20568;-76
2021/07/07 10:56:15;;;;;;;3.80;0.73;;;37.80;45.70;;;;;;5074939;28;20570;-76
2021/07/07 10:58:42;;;;;;;3.83;0.83;;;38.00;44.80;;;;;;5093076;28;20655;-76
2021/07/07 11:01:33;;;;;;;2.03;0.60;;;38.20;44.70;;;;;;5075163;28;20671;-76
2021/07/07 11:04:01;;;;;;;1.90;0.70;;;38.20;43.60;;;;;;5091770;28;20902;-77
2021/07/07 11:06:39;;;;;;;1.33;0.60;;;38.00;43.00;;;;;;5080634;28;20574;-77
2021/07/07 11:09:05;;;;;;;3.20;0.70;;;37.60;42.20;;;;;;5092560;28;20616;-77
2021/07/07 11:11:31;;;;;;;1.47;0.63;;;37.00;42.00;;;;;;5092967;28;20638;-78
2021/07/07 11:13:56;;;;;;;1.53;0.80;;;36.50;42.00;;;;;;5093716;28;21255;-78
2021/07/07 11:16:23;;;;;;;2.90;0.70;;;36.00;42.10;;;;;;5093560;28;20557;-77
2021/07/07 11:18:49;;;;;;;2.07;0.60;;;35.50;42.60;;;;;;5092317;28;20177;-78
2021/07/07 11:21:17;;;;;;;1.80;0.70;;;35.10;43.00;;;;;;5074844;28;20634;-77
2021/07/07 11:23:43;;;;;;;1.67;0.90;;;34.80;43.30;;;;;;5091376;28;20901;-77
2021/07/07 11:26:10;;;;;;;2.73;1.47;;;34.60;43.60;;;;;;5074712;28;20977;-77
2021/07/07 11:28:36;;;;;;;1.90;0.80;;;34.30;43.80;;;;;;5091112;28;20632;-77
2021/07/07 11:31:02;;;;;;;1.67;0.73;;;34.10;44.00;;;;;;5092536;28;20659;-78
2021/07/07 11:33:28;;;;;;;1.70;0.70;;;33.90;43.90;;;;;;5074476;28;20569;-77
2021/07/07 11:35:55;;;;;;;1.80;0.63;;;33.70;44.20;;;;;;5091236;28;20570;-77
2021/07/07 11:38:25;;;;;;;1.63;0.73;;;33.60;44.80;;;;;;5091337;28;20215;-77
2021/07/07 11:40:52;;;;;;;2.03;0.60;;;33.60;44.90;;;;;;5071816;28;21246;-77
2021/07/07 11:43:28;;;;;;;1.50;0.70;;;33.60;45.00;;;;;;5072326;28;20580;-77
2021/07/07 11:45:58;;;;;;;2.23;0.53;;;33.50;44.80;;;;;;5070740;28;20571;-77
2021/07/07 11:51:00;;;;;;;3.10;0.80;;;33.10;44.90;;;;;;5077265;28;20654;-77
2021/07/07 11:53:43;;;;;;;3.03;0.70;;;33.10;45.30;;;;;;5071637;28;20933;-77
2021/07/07 11:56:15;;;;;;;2.17;0.70;;;33.00;45.40;;;;;;5070499;28;20578;-77
2021/07/07 11:58:52;;;;;;;1.70;0.60;;;33.10;45.70;;;;;;5070740;28;20586;-76
2021/07/07 12:01:19;;;;;;;2.70;0.60;;;32.90;46.00;;;;;;5071856;28;20599;-77
2021/07/07 12:03:55;;;;;;;2.27;0.90;;;32.80;45.40;;;;;;5070660;28;20573;-77
2021/07/07 12:06:31;;;;;;;2.37;0.70;;;32.70;45.60;;;;;;5076511;28;20584;-78
2021/07/07 12:08:57;;;;;;;3.10;0.90;;;32.60;45.70;;;;;;5091544;28;20737;-79
2021/07/07 12:11:23;;;;;;;3.10;0.80;;;32.50;45.50;;;;;;5090209;28;20949;-79
2021/07/07 12:13:51;;;;;;;5.30;0.70;;;32.50;45.80;;;;;;5074055;28;20562;-78
2021/07/07 12:16:24;;;;;;;1.73;0.83;;;32.30;45.90;;;;;;5073517;28;20619;-79
2021/07/07 12:18:52;;;;;;;4.27;0.70;;;32.30;46.00;;;;;;5090298;28;20570;-78
2021/07/07 12:21:24;;;;;;;1.77;0.67;;;32.10;45.80;;;;;;5091666;28;21327;-78
2021/07/07 12:23:55;;;;;;;3.33;0.90;;;31.90;46.10;;;;;;5091662;28;20656;-79
2021/07/07 12:26:29;;;;;;;2.50;0.70;;;31.70;46.10;;;;;;5090432;28;20938;-78
2021/07/07 12:28:57;;;;;;;2.40;0.70;;;31.50;46.00;;;;;;5092189;28;21219;-77
2021/07/07 12:31:24;;;;;;;2.10;0.90;;;31.20;46.10;;;;;;5091495;28;20594;-77
2021/07/07 12:33:53;;;;;;;1.40;0.80;;;31.00;46.30;;;;;;5091474;28;20568;-77
2021/07/07 12:36:28;;;;;;;1.30;0.60;;;30.90;46.80;;;;;;5091470;28;20569;-78
2021/07/07 12:38:58;;;;;;;2.20;0.60;;;30.80;47.20;;;;;;5091514;28;20571;-78
2021/07/07 12:41:40;;;;;;;3.77;1.10;;;30.80;47.40;;;;;;5091484;28;21198;-77
2021/07/07 12:44:12;;;;;;;2.07;0.80;;;30.80;48.20;;;;;;5091425;28;20569;-77
2021/07/07 12:46:59;;;;;;;1.70;0.60;;;30.90;48.10;;;;;;5090066;28;20922;-77
2021/07/07 12:49:42;;;;;;;3.20;1.00;;;30.90;47.90;;;;;;5091303;28;20985;-77
2021/07/07 12:52:17;;;;;;;1.63;0.60;;;30.90;48.00;;;;;;5072852;28;20609;-77